Time;durP1;ratioP1;P1;durP2;ratioP2;P2;SDS_P1;SDS_P2;PMS_P1;PMS_P2;Temp;Humidity;BMP_temperature;BMP_pressure;BME280_temperature;BME280_humidity;BME280_pressure;Samples;Min_cycle;Max_cycle;Signal;HPM_P1;HPM_P2
2022/08/01 00:02:56;;;;;;;5.77;3.10;;;;;;;24.08;45.13;97796.66;8066586;29;20241;-79
2022/08/01 00:07:00;;;;;;;7.90;3.17;;;;;;;23.95;45.56;97803.22;8066470;29;20517;-80
2022/08/01 00:11:03;;;;;;;5.57;3.20;;;;;;;23.94;45.79;97798.09;8065968;29;20237;-81
2022/08/01 00:15:08;;;;;;;4.47;2.97;;;;;;;23.94;45.54;97798.09;8066100;29;20241;-80
2022/08/01 00:19:10;;;;;;;3.57;2.60;;;;;;;23.91;45.00;97804.53;8064107;29;20238;-80
2022/08/01 00:23:15;;;;;;;7.90;2.80;;;;;;;23.87;45.08;97803.16;8065549;29;20234;-80
2022/08/01 00:27:18;;;;;;;5.70;2.80;;;;;;;23.85;44.72;97799.84;8065204;29;20249;-80
2022/08/01 00:31:21;;;;;;;6.50;2.77;;;;;;;23.89;44.56;97811.75;8064611;29;20232;-80
2022/08/01 00:35:24;;;;;;;4.53;2.63;;;;;;;23.93;44.19;97801.72;8065342;29;20448;-79
2022/08/01 00:39:29;;;;;;;6.63;2.67;;;;;;;23.88;44.51;97807.47;8065312;29;20248;-80
2022/08/01 00:43:31;;;;;;;3.57;2.73;;;;;;;23.82;44.82;97813.41;8063710;29;20259;-79
2022/08/01 00:47:34;;;;;;;3.37;2.30;;;;;;;23.86;44.29;97809.44;8063545;29;20249;-79
2022/08/01 00:51:37;;;;;;;5.33;2.63;;;;;;;23.83;44.50;97809.75;8063815;29;20299;-79
2022/08/01 00:55:41;;;;;;;5.53;2.50;;;;;;;23.81;44.60;97817.84;8063491;29;20234;-79
2022/08/01 00:59:44;;;;;;;5.03;2.50;;;;;;;23.80;44.68;97813.53;8063459;29;20242;-79
2022/08/01 01:03:50;;;;;;;4.07;2.60;;;;;;;23.74;44.89;97822.06;8062923;29;20234;-78
2022/08/01 01:08:05;;;;;;;3.20;2.60;;;;;;;23.80;44.66;97813.53;8063271;29;20521;-78
2022/08/01 01:12:17;;;;;;;5.77;2.50;;;;;;;23.79;44.23;97813.69;8063252;29;20245;-78
2022/08/01 01:16:21;;;;;;;3.77;2.40;;;;;;;23.77;44.20;97816.47;8062905;29;20238;-78
2022/08/01 01:20:28;;;;;;;6.97;2.80;;;;;;;23.80;44.61;97812.72;8062941;29;20240;-78
2022/08/01 01:24:39;;;;;;;8.83;2.60;;;;;;;23.74;44.56;97814.16;8062847;29;20248;-78
2022/08/01 01:29:04;;;;;;;4.77;2.70;;;;;;;23.78;44.38;97812.88;8062385;29;20238;-79
2022/08/01 01:33:10;;;;;;;3.97;2.27;;;;;;;23.80;44.35;97826.78;8058200;29;20250;-78
2022/08/01 01:37:17;;;;;;;3.53;2.30;;;;;;;23.79;44.23;97824.28;8031990;29;20246;-78
2022/08/01 01:41:20;;;;;;;5.17;2.50;;;;;;;23.73;44.65;97827.50;8031747;29;20240;-78
2022/08/01 01:45:26;;;;;;;2.77;2.13;;;;;;;23.82;44.12;97831.91;8031682;29;20231;-78
2022/08/01 01:49:30;;;;;;;4.40;2.50;;;;;;;23.71;44.79;97829.47;8031337;29;20238;-79
2022/08/01 01:53:34;;;;;;;3.60;2.50;;;;;;;23.75;44.25;97831.66;8031455;29;20247;-78
2022/08/01 01:57:39;;;;;;;3.23;2.23;;;;;;;23.74;44.70;97827.38;8031364;29;20560;-78
2022/08/01 02:01:43;;;;;;;6.10;2.47;;;;;;;23.64;44.82;97831.06;8034216;29;20238;-79
2022/08/01 02:06:06;;;;;;;5.97;2.20;;;;;;;23.68;44.50;97835.06;8061402;29;20245;-78
2022/08/01 02:10:11;;;;;;;6.53;2.33;;;;;;;23.61;44.75;97837.50;8061371;29;20241;-79
2022/08/01 02:14:15;;;;;;;2.77;2.40;;;;;;;23.58;44.56;97840.44;8061535;29;20498;-78
2022/08/01 02:18:20;;;;;;;3.87;2.20;;;;;;;23.59;44.77;97850.06;8061655;29;20235;-78
2022/08/01 02:22:28;;;;;;;4.30;2.50;;;;;;;23.53;45.53;97861.22;8061369;29;20243;-78
2022/08/01 02:26:31;;;;;;;5.37;2.37;;;;;;;23.46;45.75;97854.91;8061274;29;20430;-79
2022/08/01 02:30:36;;;;;;;2.60;2.30;;;;;;;23.40;46.09;97861.63;8061203;29;20454;-79
2022/08/01 02:34:41;;;;;;;3.00;2.40;;;;;;;23.40;46.47;97865.09;8061268;29;20254;-79
2022/08/01 02:38:45;;;;;;;3.63;2.33;;;;;;;23.36;46.42;97863.72;8061000;29;20238;-79
2022/08/01 02:42:51;;;;;;;3.57;2.37;;;;;;;23.34;46.50;97867.50;8060748;29;20248;-78
2022/08/01 02:46:57;;;;;;;2.83;2.33;;;;;;;23.33;46.31;97865.84;8060927;29;20532;-79
2022/08/01 02:51:03;;;;;;;4.97;2.60;;;;;;;23.29;46.78;97867.94;8060296;29;20266;-78
2022/08/01 02:55:08;;;;;;;4.83;2.73;;;;;;;23.23;46.85;97864.09;8066014;29;20574;-78
2022/08/01 02:59:19;;;;;;;4.83;2.17;;;;;;;23.26;46.83;97881.44;8066833;29;20240;-77
2022/08/01 03:03:24;;;;;;;5.17;2.33;;;;;;;23.26;46.68;97864.78;8066697;29;20246;-78
2022/08/01 03:07:29;;;;;;;6.47;2.40;;;;;;;23.28;47.13;97868.91;8066755;29;20411;-78
2022/08/01 03:11:38;;;;;;;4.67;2.40;;;;;;;23.25;47.20;97878.94;8066199;29;20237;-78
2022/08/01 03:15:42;;;;;;;3.30;2.20;;;;;;;23.21;47.33;97881.91;8066514;29;20226;-78
2022/08/01 03:19:46;;;;;;;4.70;2.20;;;;;;;23.25;47.28;97876.31;8066561;29;20231;-78
2022/08/01 03:23:56;;;;;;;4.70;2.40;;;;;;;23.14;47.64;97880.03;8065270;29;20305;-78
2022/08/01 03:28:02;;;;;;;3.67;2.43;;;;;;;23.14;47.56;97885.31;8064991;29;20238;-78
2022/08/01 03:32:06;;;;;;;5.00;2.60;;;;;;;23.16;48.04;97878.88;8065977;29;20242;-78
2022/08/01 03:36:10;;;;;;;4.40;2.20;;;;;;;23.10;48.41;97881.31;8065654;29;20239;-79
2022/08/01 03:40:21;;;;;;;5.47;2.90;;;;;;;23.07;48.30;97882.41;8065241;29;20245;-77
2022/08/01 03:44:27;;;;;;;3.20;2.30;;;;;;;23.03;48.43;97886.34;8065531;29;20271;-78
2022/08/01 03:48:30;;;;;;;3.30;2.33;;;;;;;22.98;48.47;97891.19;8065456;29;20246;-78
2022/08/01 03:52:34;;;;;;;3.27;1.90;;;;;;;22.97;48.69;97893.00;8065212;29;20234;-78
2022/08/01 03:56:39;;;;;;;4.53;2.60;;;;;;;22.96;48.79;97890.50;8065256;29;20241;-78
2022/08/01 04:00:43;;;;;;;4.13;2.20;;;;;;;22.90;49.23;97885.84;8064406;29;20242;-78
2022/08/01 04:04:46;;;;;;;2.93;2.07;;;;;;;22.97;49.31;97890.38;8063075;29;20246;-79
2022/08/01 04:08:56;;;;;;;4.47;2.30;;;;;;;22.93;49.33;97891.66;8063685;29;20246;-78
2022/08/01 04:13:00;;;;;;;5.33;2.33;;;;;;;22.95;49.57;97900.25;8064143;29;20571;-78
2022/08/01 04:17:03;;;;;;;3.03;1.90;;;;;;;22.98;50.03;97905.25;8063876;29;20238;-78
2022/08/01 04:21:06;;;;;;;6.17;2.33;;;;;;;23.07;49.53;97905.34;8063725;29;20253;-79
2022/08/01 04:25:12;;;;;;;3.23;2.00;;;;;;;23.08;49.52;97915.78;8063593;29;20428;-78
2022/08/01 04:29:17;;;;;;;4.00;2.27;;;;;;;23.08;50.05;97920.25;8063450;29;20234;-78
2022/08/01 04:33:20;;;;;;;4.07;2.60;;;;;;;23.09;49.98;97924.53;8062867;29;20233;-77
2022/08/01 04:37:25;;;;;;;3.87;2.10;;;;;;;23.14;49.96;97920.47;8062633;29;20234;-78
2022/08/01 04:41:28;;;;;;;3.63;2.50;;;;;;;23.13;50.00;97925.88;8063429;29;20250;-78
2022/08/01 04:45:33;;;;;;;3.77;2.17;;;;;;;23.16;50.17;97936.16;8062723;29;20226;-78
2022/08/01 04:49:36;;;;;;;3.50;2.30;;;;;;;23.17;50.46;97930.75;8062929;29;20237;-78
2022/08/01 04:53:51;;;;;;;4.33;2.10;;;;;;;23.27;50.37;97929.84;8062641;29;20237;-79
2022/08/01 04:57:54;;;;;;;3.53;2.20;;;;;;;23.31;50.39;97937.31;8062755;29;20234;-78
2022/08/01 05:01:58;;;;;;;2.93;2.10;;;;;;;23.38;49.86;97940.19;8062583;29;20428;-78
2022/08/01 05:06:01;;;;;;;3.73;1.90;;;;;;;23.35;50.63;97943.97;8062726;29;20434;-78
2022/08/01 05:10:05;;;;;;;3.93;1.90;;;;;;;23.52;50.48;97944.97;8062267;29;20253;-79
2022/08/01 05:14:07;;;;;;;2.37;1.50;;;;;;;23.62;50.51;97936.94;8062531;29;20434;-78
2022/08/01 05:18:12;;;;;;;3.37;2.10;;;;;;;23.52;50.77;97950.25;8062356;29;20380;-78
2022/08/01 05:22:16;;;;;;;5.97;2.20;;;;;;;23.75;50.50;97953.25;8062318;29;20257;-79
2022/08/01 05:26:19;;;;;;;5.67;2.13;;;;;;;23.67;50.41;97945.28;8062052;29;20586;-79
2022/08/01 05:30:22;;;;;;;3.80;1.97;;;;;;;23.84;50.55;97950.72;8062140;29;20248;-80
2022/08/01 05:34:27;;;;;;;4.73;2.37;;;;;;;23.83;50.02;97943.78;8061941;29;20235;-79
2022/08/01 05:38:30;;;;;;;2.63;1.90;;;;;;;23.93;49.96;97950.66;8061866;29;20249;-79
2022/08/01 05:42:33;;;;;;;2.17;1.63;;;;;;;23.98;50.28;97950.19;8061212;29;20235;-79
2022/08/01 05:46:36;;;;;;;4.30;2.10;;;;;;;23.86;50.77;97951.41;8061589;29;20264;-79
2022/08/01 05:50:40;;;;;;;3.03;2.20;;;;;;;24.01;50.34;97949.88;8061513;29;20239;-79
2022/08/01 05:54:43;;;;;;;4.20;2.00;;;;;;;24.03;50.43;97950.56;8061327;29;20241;-79
2022/08/01 05:58:45;;;;;;;5.53;1.90;;;;;;;24.17;50.09;97951.81;8061164;29;20239;-80
2022/08/01 06:02:48;;;;;;;4.53;1.90;;;;;;;24.20;50.44;97954.97;8029849;29;20247;-78
2022/08/01 06:06:53;;;;;;;4.23;2.10;;;;;;;24.18;50.82;97953.47;8030317;29;20235;-78
2022/08/01 06:10:56;;;;;;;4.90;1.90;;;;;;;24.35;49.78;97954.41;8030579;29;20243;-78
2022/08/01 06:14:59;;;;;;;2.27;1.63;;;;;;;24.29;50.32;97957.69;8030180;29;20236;-79
2022/08/01 06:19:02;;;;;;;3.13;1.73;;;;;;;24.28;50.38;97966.63;8030088;29;20246;-78
2022/08/01 06:23:06;;;;;;;3.97;1.70;;;;;;;24.27;50.77;97972.88;8030074;29;20251;-79
2022/08/01 06:27:29;;;;;;;4.43;1.80;;;;;;;24.16;51.35;97973.94;8029207;29;20266;-78
2022/08/01 06:31:32;;;;;;;2.67;1.63;;;;;;;24.38;50.88;97973.44;8029854;29;20306;-78
2022/08/01 06:35:35;;;;;;;3.27;1.50;;;;;;;24.43;51.25;97980.09;8029923;29;20254;-79
2022/08/01 06:39:39;;;;;;;3.63;1.80;;;;;;;24.48;50.63;97981.28;8029932;29;20238;-79
2022/08/01 06:43:42;;;;;;;2.47;1.70;;;;;;;24.55;50.71;97984.19;8029473;29;20232;-78
2022/08/01 06:47:46;;;;;;;2.73;1.80;;;;;;;24.58;50.10;97982.06;8029535;29;20237;-78
2022/08/01 06:51:53;;;;;;;3.57;1.80;;;;;;;24.63;49.98;97980.75;8029258;29;20418;-79
2022/08/01 06:55:57;;;;;;;3.43;1.57;;;;;;;24.55;50.02;97982.34;8029282;29;20553;-78
2022/08/01 07:00:04;;;;;;;2.40;1.67;;;;;;;24.56;49.87;97980.53;8029310;29;20242;-78
2022/08/01 07:04:07;;;;;;;4.77;1.90;;;;;;;24.64;50.21;97987.72;8029350;29;20412;-79
2022/08/01 07:08:09;;;;;;;4.43;1.80;;;;;;;24.76;49.81;97989.91;8029888;29;20243;-78
2022/08/01 07:12:13;;;;;;;3.37;2.00;;;;;;;24.78;49.67;97987.13;8028770;29;20249;-78
2022/08/01 07:16:17;;;;;;;2.83;1.60;;;;;;;24.94;49.43;97989.84;8029635;29;20238;-78
2022/08/01 07:20:20;;;;;;;6.17;2.00;;;;;;;25.02;49.16;97993.50;8029241;29;20235;-79
2022/08/01 07:24:23;;;;;;;5.57;2.00;;;;;;;25.02;49.20;97993.50;8028792;29;20241;-79
2022/08/01 07:28:31;;;;;;;3.63;1.90;;;;;;;25.10;48.91;97993.56;8028701;29;20301;-78
2022/08/01 07:32:34;;;;;;;8.07;1.80;;;;;;;25.17;49.24;97994.59;8029299;29;20503;-79
2022/08/01 07:36:37;;;;;;;5.67;1.90;;;;;;;25.23;48.67;97999.28;8029616;29;20229;-79
2022/08/01 07:40:40;;;;;;;4.40;1.83;;;;;;;26.16;47.18;98000.97;8033522;29;20232;-79
2022/08/01 07:44:44;;;;;;;4.73;1.90;;;;;;;26.79;45.88;98004.72;8041527;29;20245;-79
2022/08/01 07:48:47;;;;;;;6.30;2.07;;;;;;;26.95;44.68;98001.16;8049657;29;20237;-74
2022/08/01 07:52:50;;;;;;;5.07;1.77;;;;;;;27.04;44.22;98008.13;8049432;29;20244;-78
2022/08/01 07:56:52;;;;;;;5.83;1.93;;;;;;;26.72;45.13;97995.75;8049876;29;20236;-78
2022/08/01 08:00:56;;;;;;;3.43;1.70;;;;;;;27.28;44.17;97993.94;8065593;29;20559;-77
2022/08/01 08:04:59;;;;;;;4.80;2.00;;;;;;;26.66;44.78;97991.13;8064534;29;20248;-78
2022/08/01 08:09:02;;;;;;;3.30;1.50;;;;;;;26.11;46.66;98012.06;8064106;29;20527;-78
2022/08/01 08:13:05;;;;;;;4.10;1.60;;;;;;;26.75;44.88;97999.91;8065009;29;20538;-79
2022/08/01 08:17:09;;;;;;;5.93;1.50;;;;;;;27.71;42.77;97992.69;8064346;29;20235;-79
2022/08/01 08:21:12;;;;;;;2.20;1.20;;;;;;;28.37;40.67;97993.84;8064853;29;20519;-78
2022/08/01 08:25:15;;;;;;;2.10;1.10;;;;;;;28.51;40.49;97994.88;8064732;29;20250;-80
2022/08/01 08:29:18;;;;;;;2.63;1.20;;;;;;;27.70;41.96;97997.16;8064533;29;20451;-85
2022/08/01 08:33:22;;;;;;;1.90;1.23;;;;;;;27.90;41.43;97988.75;8065777;29;20535;-87
2022/08/01 08:37:25;;;;;;;1.73;1.10;;;;;;;27.92;41.04;97986.75;8065007;29;20240;-83
2022/08/01 08:41:33;;;;;;;24.57;3.27;;;;;;;27.99;41.37;97985.84;8064539;29;20237;-82
2022/08/01 08:45:39;;;;;;;4.13;1.10;;;;;;;28.52;40.08;97980.59;8063460;29;20266;-85
2022/08/01 08:50:05;;;;;;;10.13;1.50;;;;;;;28.42;40.16;97982.66;8048082;29;20309;-80
2022/08/01 08:54:08;;;;;;;5.57;1.17;;;;;;;27.66;40.90;97979.91;8049363;29;20245;-80
2022/08/01 08:58:13;;;;;;;8.87;1.50;;;;;;;28.36;39.92;97986.84;8048959;29;20237;-81
2022/08/01 09:02:16;;;;;;;4.47;1.20;;;;;;;29.42;38.07;97979.53;8048619;29;20439;-80
2022/08/01 09:06:21;;;;;;;2.57;1.10;;;;;;;29.54;37.20;97984.38;8036481;29;20246;-80
2022/08/01 09:10:24;;;;;;;2.87;1.20;;;;;;;30.21;35.76;97985.84;8032791;29;20238;-80
2022/08/01 09:14:30;;;;;;;3.73;1.00;;;;;;;30.11;35.80;97980.84;8032824;29;20251;-80
2022/08/01 09:18:34;;;;;;;2.63;1.10;;;;;;;30.16;35.11;97986.44;8032489;29;20247;-80
2022/08/01 09:22:38;;;;;;;1.00;0.77;;;;;;;30.38;34.89;97981.91;8032134;29;20250;-84
2022/08/01 09:26:41;;;;;;;3.73;1.17;;;;;;;30.66;34.50;97986.41;8032980;29;20403;-79
2022/08/01 09:30:44;;;;;;;4.47;1.10;;;;;;;30.43;34.50;97986.69;8033643;29;20241;-80
2022/08/01 09:34:47;;;;;;;2.10;0.83;;;;;;;28.87;37.91;97986.19;8032713;29;20254;-80
2022/08/01 09:38:52;;;;;;;2.87;0.93;;;;;;;28.37;38.66;97998.31;8031633;29;20231;-79
2022/08/01 09:43:11;;;;;;;2.50;1.03;;;;;;;30.07;36.56;97992.13;8031172;29;20252;-79
2022/08/01 09:47:17;;;;;;;4.60;1.20;;;;;;;29.02;37.64;97988.88;8030493;29;20297;-81
2022/08/01 09:51:29;;;;;;;2.87;1.13;;;;;;;28.55;39.11;97982.88;8032292;29;20330;-80
2022/08/01 09:55:54;;;;;;;7.00;1.30;;;;;;;28.65;38.50;97994.09;8031439;29;20238;-83
2022/08/01 09:59:58;;;;;;;3.63;1.10;;;;;;;30.07;35.42;97984.91;8032396;29;20433;-80
2022/08/01 10:04:07;;;;;;;4.10;1.20;;;;;;;30.55;34.97;97973.59;8031201;29;20259;-81
2022/08/01 10:08:12;;;;;;;1.63;0.93;;;;;;;31.22;33.18;97985.47;8031488;29;20287;-79
2022/08/01 10:12:26;;;;;;;2.13;1.20;;;;;;;29.69;35.23;97979.00;8031202;29;20254;-80
2022/08/01 10:16:31;;;;;;;1.20;0.90;;;;;;;30.88;33.70;97976.47;8031056;29;20237;-82
2022/08/01 10:20:34;;;;;;;3.03;1.00;;;;;;;30.41;33.96;97975.38;8038988;29;20248;-84
2022/08/01 10:24:40;;;;;;;3.07;1.00;;;;;;;30.81;33.98;97967.59;8047047;29;20245;-78
2022/08/01 10:28:45;;;;;;;2.87;0.90;;;;;;;29.78;34.96;97972.56;8047056;29;20243;-83
2022/08/01 10:32:49;;;;;;;1.93;0.90;;;;;;;30.22;34.38;97963.47;8046549;29;20236;-81
2022/08/01 10:36:53;;;;;;;1.73;1.10;;;;;;;29.68;35.00;97967.47;8046609;29;20234;-82
2022/08/01 10:40:57;;;;;;;2.43;1.03;;;;;;;29.46;36.14;97971.16;8046121;29;20234;-81
2022/08/01 10:45:02;;;;;;;1.53;0.90;;;;;;;29.34;35.77;97973.47;8046998;29;20365;-81
2022/08/01 10:49:08;;;;;;;3.17;1.00;;;;;;;29.01;35.95;97965.88;8046681;29;20238;-83
2022/08/01 10:53:14;;;;;;;2.57;0.80;;;;;;;28.81;36.49;97963.78;8046814;29;20306;-80
2022/08/01 10:57:18;;;;;;;2.13;1.00;;;;;;;28.69;36.75;97967.91;8046097;29;20247;-80
2022/08/01 11:01:27;;;;;;;1.13;0.93;;;;;;;28.59;37.47;97962.84;8046748;29;20238;-82
2022/08/01 11:05:33;;;;;;;1.40;1.10;;;;;;;28.34;38.50;97972.91;8046363;29;20537;-84
2022/08/01 11:09:40;;;;;;;2.83;1.13;;;;;;;28.44;37.78;97969.97;8030633;29;20255;-74
2022/08/01 11:14:06;;;;;;;5.60;1.40;;;;;;;28.37;38.19;97977.03;8032079;29;20235;-75
2022/08/01 11:18:33;;;;;;;3.07;1.10;;;;;;;28.23;38.76;97960.03;8067247;29;20234;-79
2022/08/01 11:23:14;;;;;;;2.20;1.10;;;;;;;27.84;38.84;97968.97;8066740;29;20230;-77
2022/08/01 11:27:18;;;;;;;3.67;1.20;;;;;;;28.54;37.83;97965.25;8058549;29;20237;-77
2022/08/01 11:31:35;;;;;;;3.03;1.07;;;;;;;28.86;37.41;97957.88;8067067;29;20237;-76
2022/08/01 11:36:20;;;;;;;2.73;1.00;;;;;;;28.32;37.60;97966.13;8066721;29;20241;-73
2022/08/01 11:40:43;;;;;;;1.37;1.00;;;;;;;28.20;38.05;97965.72;8035882;29;20265;-78
2022/08/01 11:44:50;;;;;;;1.73;1.10;;;;;;;28.04;37.94;97959.50;8035826;29;20238;-77
2022/08/01 11:49:22;;;;;;;3.70;1.23;;;;;;;28.61;37.03;97952.84;8042091;29;20241;-76
2022/08/01 11:53:27;;;;;;;4.27;1.00;;;;;;;29.57;35.00;97960.81;8034002;29;20234;-78
2022/08/01 11:57:34;;;;;;;1.57;1.10;;;;;;;29.75;36.19;97960.38;8035653;29;20246;-77
2022/08/01 12:01:37;;;;;;;1.93;1.23;;;;;;;30.46;35.11;97948.03;8034751;29;20234;-78
2022/08/01 12:05:45;;;;;;;2.17;1.07;;;;;;;29.66;36.34;97948.16;8035321;29;20317;-77
2022/08/01 12:09:53;;;;;;;4.13;1.27;;;;;;;30.24;35.08;97941.94;8034834;29;20231;-76
2022/08/01 12:13:55;;;;;;;1.20;1.10;;;;;;;29.96;34.80;97940.06;8034969;29;20248;-78
2022/08/01 12:18:01;;;;;;;4.07;1.30;;;;;;;30.92;33.97;97934.97;8034893;29;20518;-78
2022/08/01 12:22:11;;;;;;;3.20;1.30;;;;;;;31.42;33.24;97928.56;8034734;29;20422;-78
2022/08/01 12:26:16;;;;;;;1.10;1.00;;;;;;;31.47;32.52;97926.13;8034020;29;20556;-76
2022/08/01 12:30:35;;;;;;;1.73;1.40;;;;;;;31.08;32.88;97924.97;8034408;29;20241;-77
2022/08/01 12:34:38;;;;;;;2.00;1.30;;;;;;;30.04;34.68;97918.53;8032761;29;20266;-77
2022/08/01 12:38:41;;;;;;;1.27;1.03;;;;;;;30.93;33.47;97920.56;8034433;29;20294;-77
2022/08/01 12:42:48;;;;;;;4.53;1.20;;;;;;;30.39;33.26;97922.13;8034338;29;20491;-77
2022/08/01 12:46:51;;;;;;;1.10;1.00;;;;;;;31.16;32.04;97917.56;8040863;29;20245;-77
2022/08/01 12:50:57;;;;;;;1.10;1.00;;;;;;;30.50;31.98;97912.75;8033196;29;20252;-78
2022/08/01 12:55:14;;;;;;;1.30;0.90;;;;;;;30.23;32.04;97924.25;8033732;29;20266;-76
2022/08/01 12:59:24;;;;;;;3.40;1.03;;;;;;;30.05;33.08;97917.53;8033357;29;20238;-80
2022/08/01 13:03:27;;;;;;;1.13;0.90;;;;;;;29.60;33.65;97917.72;8033526;29;20241;-78
2022/08/01 13:07:48;;;;;;;1.60;1.10;;;;;;;29.33;34.24;97929.16;8033259;29;20242;-78
2022/08/01 13:11:53;;;;;;;1.20;1.10;;;;;;;29.16;34.90;97923.22;8033006;29;20238;-78
2022/08/01 13:16:09;;;;;;;2.47;1.00;;;;;;;29.77;34.18;97912.19;8033189;29;20260;-76
2022/08/01 13:20:32;;;;;;;2.63;1.00;;;;;;;31.10;31.71;97914.88;8032994;29;20556;-77
2022/08/01 13:24:35;;;;;;;1.77;0.90;;;;;;;31.12;31.04;97902.13;8032694;29;20263;-76
2022/08/01 13:28:38;;;;;;;1.63;0.90;;;;;;;30.72;31.81;97900.09;8032648;29;20244;-77
2022/08/01 13:32:43;;;;;;;1.10;0.90;;;;;;;30.06;32.93;97895.16;8032564;29;20248;-77
2022/08/01 13:36:46;;;;;;;3.47;1.10;;;;;;;29.77;33.23;97896.97;8032399;29;20259;-77
2022/08/01 13:40:59;;;;;;;2.27;0.90;;;;;;;29.68;33.05;97907.94;8031583;29;20521;-78
2022/08/01 13:45:01;;;;;;;3.27;0.83;;;;;;;29.51;33.60;97910.03;8032358;29;20243;-76
2022/08/01 13:49:08;;;;;;;2.47;0.83;;;;;;;29.39;32.83;97905.22;8032507;29;20257;-78
2022/08/01 13:53:18;;;;;;;1.00;0.80;;;;;;;29.44;33.56;97897.47;8031738;29;20231;-77
2022/08/01 13:57:21;;;;;;;1.17;0.80;;;;;;;29.65;33.38;97895.00;8032552;29;20242;-76
2022/08/01 14:01:25;;;;;;;2.30;0.90;;;;;;;29.51;33.15;97891.38;8031936;29;20248;-77
2022/08/01 14:05:37;;;;;;;1.30;0.93;;;;;;;30.25;33.16;97892.81;8031574;29;20245;-76
2022/08/01 14:09:40;;;;;;;1.90;0.70;;;;;;;30.51;31.76;97889.50;8031831;29;20243;-75
2022/08/01 14:14:03;;;;;;;0.80;0.80;;;;;;;30.65;30.77;97887.72;8036514;29;20233;-76
2022/08/01 14:18:10;;;;;;;0.83;0.67;;;;;;;30.72;31.53;97892.09;8030897;29;20230;-77
2022/08/01 14:22:15;;;;;;;1.03;0.60;;;;;;;30.69;30.82;97897.00;8032139;29;20329;-76
2022/08/01 14:26:17;;;;;;;0.53;0.50;;;;;;;30.47;31.78;97897.09;8031299;29;20248;-76
2022/08/01 14:30:20;;;;;;;1.30;0.70;;;;;;;29.92;31.08;97896.91;8030136;29;20247;-76
2022/08/01 14:34:23;;;;;;;0.93;0.73;;;;;;;30.17;30.99;97894.63;8030785;29;20247;-73
2022/08/01 14:38:27;;;;;;;1.27;0.80;;;;;;;30.08;30.84;97905.63;8030984;29;20240;-77
2022/08/01 14:42:35;;;;;;;1.80;0.70;;;;;;;29.80;30.73;97901.13;8029739;29;20241;-76
2022/08/01 14:46:38;;;;;;;2.13;0.80;;;;;;;29.92;31.14;97904.91;8031149;29;20240;-77
2022/08/01 14:51:02;;;;;;;0.90;0.60;;;;;;;29.70;31.89;97908.59;8066346;29;20238;-76
2022/08/01 14:55:08;;;;;;;0.93;0.80;;;;;;;29.69;31.45;97910.44;8067454;29;20438;-79
2022/08/01 14:59:11;;;;;;;1.10;0.70;;;;;;;29.91;31.85;97900.59;8048381;29;20244;-77
2022/08/01 15:03:23;;;;;;;2.63;0.90;;;;;;;30.16;30.93;97897.50;8037438;29;20242;-77
2022/08/01 15:07:26;;;;;;;1.90;0.90;;;;;;;29.77;31.80;97899.66;8036971;29;20235;-77
2022/08/01 15:11:30;;;;;;;2.40;0.93;;;;;;;30.06;32.08;97889.00;8036930;29;20237;-78
2022/08/01 15:15:36;;;;;;;1.67;0.80;;;;;;;30.56;31.48;97893.25;8036889;29;20232;-76
2022/08/01 15:19:39;;;;;;;4.77;1.20;;;;;;;30.64;33.64;97894.94;8034567;29;20246;-76
2022/08/01 15:23:44;;;;;;;2.60;1.10;;;;;;;30.01;34.95;97906.41;8036125;29;20244;-77
2022/08/01 15:27:48;;;;;;;3.33;1.00;;;;;;;29.74;34.61;97905.38;8036273;29;20244;-77
2022/08/01 15:31:51;;;;;;;0.90;0.90;;;;;;;29.76;34.37;97892.69;8051993;29;20257;-78
2022/08/01 15:35:54;;;;;;;5.03;1.30;;;;;;;29.68;34.89;97898.09;8035675;29;20242;-79
2022/08/01 15:39:56;;;;;;;2.43;0.90;;;;;;;29.53;34.83;97902.69;8035979;29;20335;-79
2022/08/01 15:44:00;;;;;;;3.20;0.90;;;;;;;29.62;34.61;97890.88;8034593;29;20238;-76
2022/08/01 15:48:04;;;;;;;2.27;1.20;;;;;;;29.18;35.25;97899.88;8035486;29;20240;-78
2022/08/01 15:52:07;;;;;;;1.80;1.37;;;;;;;29.12;36.00;97900.59;8035578;29;20370;-79
2022/08/01 15:56:24;;;;;;;1.57;1.20;;;;;;;28.84;36.95;97898.63;8033151;29;20232;-78
2022/08/01 16:00:28;;;;;;;2.50;1.50;;;;;;;28.59;38.14;97893.59;8045393;29;20239;-80
2022/08/01 16:04:41;;;;;;;1.30;1.20;;;;;;;28.70;37.72;97892.31;8034908;29;20246;-75
2022/08/01 16:08:43;;;;;;;3.40;1.17;;;;;;;28.53;37.99;97894.34;8035436;29;20417;-75
2022/08/01 16:12:46;;;;;;;1.43;1.30;;;;;;;28.42;38.00;97892.91;8042281;29;20428;-75
2022/08/01 16:16:51;;;;;;;4.57;1.40;;;;;;;28.22;38.11;97883.84;8065388;29;20530;-74
2022/08/01 16:20:57;;;;;;;2.93;1.23;;;;;;;28.35;37.98;97893.84;8065241;29;20420;-74
2022/08/01 16:25:00;;;;;;;2.23;1.07;;;;;;;28.32;38.36;97878.25;8065129;29;20273;-77
2022/08/01 16:29:03;;;;;;;2.97;1.20;;;;;;;28.22;38.10;97886.50;8065616;29;20256;-75
2022/08/01 16:33:07;;;;;;;2.50;1.20;;;;;;;28.28;38.57;97886.59;8065078;29;20237;-75
2022/08/01 16:37:30;;;;;;;1.20;1.10;;;;;;;28.32;38.26;97892.38;8065148;29;20393;-75
2022/08/01 16:41:33;;;;;;;2.03;1.10;;;;;;;28.19;38.73;97887.69;8064966;29;20248;-75
2022/08/01 16:45:41;;;;;;;4.10;1.90;;;;;;;28.18;38.82;97886.03;8065034;29;20245;-76
2022/08/01 16:49:46;;;;;;;3.57;2.40;;;;;;;28.20;38.84;97886.69;8064558;29;20234;-76
2022/08/01 16:53:48;;;;;;;4.93;2.20;;;;;;;28.07;39.30;97884.63;8049109;29;20238;-73
2022/08/01 16:57:51;;;;;;;4.00;3.47;;;;;;;28.17;38.87;97891.53;8033495;29;20556;-75
2022/08/01 17:01:54;;;;;;;4.37;3.10;;;;;;;28.10;38.98;97887.94;8033868;29;20238;-75
2022/08/01 17:06:06;;;;;;;3.40;2.50;;;;;;;28.06;39.08;97898.97;8033052;29;20439;-75
2022/08/01 17:10:10;;;;;;;2.90;2.03;;;;;;;28.04;39.14;97900.13;8032985;29;20552;-76
2022/08/01 17:14:13;;;;;;;5.23;1.63;;;;;;;27.90;39.93;97898.28;8037945;29;20237;-75
2022/08/01 17:18:16;;;;;;;2.13;1.50;;;;;;;27.81;40.19;97886.84;8032522;29;20519;-75
2022/08/01 17:22:21;;;;;;;2.33;1.57;;;;;;;27.74;40.25;97894.75;8032208;29;20245;-75
2022/08/01 17:26:23;;;;;;;1.50;1.40;;;;;;;27.63;40.89;97903.13;8031979;29;20243;-75
2022/08/01 17:30:26;;;;;;;1.83;1.50;;;;;;;27.72;40.70;97902.06;8048241;29;20242;-75
2022/08/01 17:34:29;;;;;;;2.53;1.80;;;;;;;27.64;41.05;97904.78;8047781;29;20430;-75
2022/08/01 17:38:34;;;;;;;4.13;1.60;;;;;;;27.60;40.26;97906.16;8047555;29;20260;-75
2022/08/01 17:42:38;;;;;;;3.00;1.50;;;;;;;27.48;40.68;97905.72;8047377;29;20521;-73
2022/08/01 17:46:41;;;;;;;1.43;1.33;;;;;;;27.43;40.72;97910.75;8047458;29;20244;-74
2022/08/01 17:50:45;;;;;;;3.10;1.73;;;;;;;27.38;41.11;97916.59;8046612;29;20457;-74
2022/08/01 17:54:49;;;;;;;11.67;3.50;;;;;;;27.43;41.45;97924.03;8061236;29;20402;-73
2022/08/01 17:58:51;;;;;;;3.00;2.20;;;;;;;27.39;41.44;97928.88;8062069;29;20233;-74
2022/08/01 18:02:54;;;;;;;7.60;4.77;;;;;;;27.43;41.20;97929.34;8061286;29;20242;-76
2022/08/01 18:06:57;;;;;;;14.93;13.20;;;;;;;27.40;41.52;97941.19;8062365;29;20233;-76
2022/08/01 18:11:02;;;;;;;30.43;25.67;;;;;;;27.37;41.46;97941.53;8061770;29;20232;-74
2022/08/01 18:15:06;;;;;;;67.93;53.50;;;;;;;27.34;41.62;97938.38;8061671;29;20281;-74
2022/08/01 18:19:09;;;;;;;108.77;94.43;;;;;;;27.26;42.02;97945.44;8061914;29;20243;-78
2022/08/01 18:23:11;;;;;;;94.40;81.50;;;;;;;27.22;41.69;97948.56;8060684;29;20242;-76
2022/08/01 18:27:16;;;;;;;123.23;106.33;;;;;;;27.20;42.03;97948.72;8031002;29;20256;-76
2022/08/01 18:31:19;;;;;;;83.63;71.97;;;;;;;27.15;41.89;97945.78;8031022;29;20233;-76
2022/08/01 18:35:23;;;;;;;30.40;27.13;;;;;;;27.03;42.20;97947.97;8031106;29;20241;-76
2022/08/01 18:39:46;;;;;;;35.20;31.40;;;;;;;27.02;42.23;97950.84;8030983;29;20230;-76
2022/08/01 18:43:52;;;;;;;24.77;22.07;;;;;;;26.99;42.26;97952.00;8030334;29;20230;-76
2022/08/01 18:48:07;;;;;;;57.53;47.63;;;;;;;26.90;42.38;97955.69;8030756;29;20251;-76
2022/08/01 18:52:09;;;;;;;16.97;14.53;;;;;;;26.87;42.53;97959.50;8047603;29;20243;-77
2022/08/01 18:56:12;;;;;;;16.33;14.53;;;;;;;26.83;43.07;97962.69;8061648;29;20248;-77
2022/08/01 19:00:17;;;;;;;21.20;18.47;;;;;;;26.78;43.12;97965.03;8061633;29;20242;-77
2022/08/01 19:04:20;;;;;;;36.27;30.73;;;;;;;26.72;42.71;97964.72;8035179;29;20532;-78
2022/08/01 19:08:22;;;;;;;12.40;4.10;;;;;;;26.62;43.34;97974.72;8030716;29;20240;-78
2022/08/01 19:12:25;;;;;;;2.37;1.90;;;;;;;26.48;43.47;97989.47;8030725;29;20233;-80
2022/08/01 19:16:30;;;;;;;1.97;1.77;;;;;;;26.43;44.48;97983.84;8030647;29;20243;-78